sensor_id;sensor_type;location;lat;lon;timestamp;P1;durP1;ratioP1;P2;durP2;ratioP2
62006;SDS011;47963;53.008;6.754;2022-12-20T00:00:47;15.57;;;9.55;;
62006;SDS011;47963;53.008;6.754;2022-12-20T00:03:12;15.68;;;9.80;;
62006;SDS011;47963;53.008;6.754;2022-12-20T00:05:39;16.50;;;9.32;;
62006;SDS011;47963;53.008;6.754;2022-12-20T00:08:06;17.42;;;10.30;;
62006;SDS011;47963;53.008;6.754;2022-12-20T00:10:35;15.00;;;9.25;;
62006;SDS011;47963;53.008;6.754;2022-12-20T00:13:08;17.48;;;10.07;;
62006;SDS011;47963;53.008;6.754;2022-12-20T00:15:35;16.70;;;9.38;;
62006;SDS011;47963;53.008;6.754;2022-12-20T00:18:01;14.43;;;8.88;;
62006;SDS011;47963;53.008;6.754;2022-12-20T00:20:29;17.00;;;9.15;;
62006;SDS011;47963;53.008;6.754;2022-12-20T00:22:55;17.75;;;10.05;;
62006;SDS011;47963;53.008;6.754;2022-12-20T00:25:21;15.85;;;8.98;;
62006;SDS011;47963;53.008;6.754;2022-12-20T00:27:47;15.48;;;9.05;;
62006;SDS011;47963;53.008;6.754;2022-12-20T00:30:13;15.60;;;9.07;;
62006;SDS011;47963;53.008;6.754;2022-12-20T00:32:40;15.20;;;8.90;;
62006;SDS011;47963;53.008;6.754;2022-12-20T00:35:07;14.50;;;8.50;;
62006;SDS011;47963;53.008;6.754;2022-12-20T00:37:33;15.50;;;8.65;;
62006;SDS011;47963;53.008;6.754;2022-12-20T00:39:59;13.82;;;9.20;;
62006;SDS011;47963;53.008;6.754;2022-12-20T00:42:24;13.88;;;8.52;;
62006;SDS011;47963;53.008;6.754;2022-12-20T00:44:50;14.55;;;8.52;;
62006;SDS011;47963;53.008;6.754;2022-12-20T00:47:16;13.50;;;8.60;;
62006;SDS011;47963;53.008;6.754;2022-12-20T00:49:41;14.93;;;8.10;;
62006;SDS011;47963;53.008;6.754;2022-12-20T00:52:07;13.73;;;7.93;;
62006;SDS011;47963;53.008;6.754;2022-12-20T00:54:33;13.23;;;8.45;;
62006;SDS011;47963;53.008;6.754;2022-12-20T00:56:58;14.50;;;8.35;;
62006;SDS011;47963;53.008;6.754;2022-12-20T00:59:24;14.25;;;8.02;;
62006;SDS011;47963;53.008;6.754;2022-12-20T01:01:50;14.02;;;8.38;;
62006;SDS011;47963;53.008;6.754;2022-12-20T01:04:15;13.52;;;8.05;;
62006;SDS011;47963;53.008;6.754;2022-12-20T01:06:41;14.20;;;7.68;;
62006;SDS011;47963;53.008;6.754;2022-12-20T01:09:07;12.50;;;7.72;;
62006;SDS011;47963;53.008;6.754;2022-12-20T01:11:34;13.05;;;7.63;;
62006;SDS011;47963;53.008;6.754;2022-12-20T01:14:01;14.68;;;7.95;;
62006;SDS011;47963;53.008;6.754;2022-12-20T01:16:31;12.82;;;7.43;;
62006;SDS011;47963;53.008;6.754;2022-12-20T01:19:00;13.10;;;7.72;;
62006;SDS011;47963;53.008;6.754;2022-12-20T01:21:26;13.25;;;7.55;;
62006;SDS011;47963;53.008;6.754;2022-12-20T01:23:52;13.35;;;7.68;;
62006;SDS011;47963;53.008;6.754;2022-12-20T01:26:19;12.60;;;7.25;;
62006;SDS011;47963;53.008;6.754;2022-12-20T01:28:47;13.15;;;7.18;;
62006;SDS011;47963;53.008;6.754;2022-12-20T01:31:16;16.23;;;7.65;;
62006;SDS011;47963;53.008;6.754;2022-12-20T01:33:43;13.82;;;7.55;;
62006;SDS011;47963;53.008;6.754;2022-12-20T01:36:12;14.05;;;7.65;;
62006;SDS011;47963;53.008;6.754;2022-12-20T01:38:39;13.30;;;7.82;;
62006;SDS011;47963;53.008;6.754;2022-12-20T01:41:05;15.00;;;7.30;;
62006;SDS011;47963;53.008;6.754;2022-12-20T01:43:45;12.52;;;7.35;;
62006;SDS011;47963;53.008;6.754;2022-12-20T01:46:34;11.73;;;7.55;;
62006;SDS011;47963;53.008;6.754;2022-12-20T01:57:26;12.15;;;7.10;;
62006;SDS011;47963;53.008;6.754;2022-12-20T01:59:59;12.88;;;6.93;;
62006;SDS011;47963;53.008;6.754;2022-12-20T02:02:24;13.27;;;7.60;;
62006;SDS011;47963;53.008;6.754;2022-12-20T02:04:51;12.90;;;7.43;;
62006;SDS011;47963;53.008;6.754;2022-12-20T02:07:17;12.27;;;7.15;;
62006;SDS011;47963;53.008;6.754;2022-12-20T02:09:48;12.55;;;7.40;;
62006;SDS011;47963;53.008;6.754;2022-12-20T02:12:15;11.60;;;7.20;;
62006;SDS011;47963;53.008;6.754;2022-12-20T02:14:56;12.70;;;7.22;;
62006;SDS011;47963;53.008;6.754;2022-12-20T02:17:43;13.95;;;6.90;;
62006;SDS011;47963;53.008;6.754;2022-12-20T02:20:35;12.95;;;7.43;;
62006;SDS011;47963;53.008;6.754;2022-12-20T02:32:01;14.73;;;7.30;;
62006;SDS011;47963;53.008;6.754;2022-12-20T02:34:40;11.70;;;6.88;;
62006;SDS011;47963;53.008;6.754;2022-12-20T02:37:08;14.05;;;6.80;;
62006;SDS011;47963;53.008;6.754;2022-12-20T02:39:36;12.40;;;6.80;;
62006;SDS011;47963;53.008;6.754;2022-12-20T02:42:12;10.60;;;6.40;;
62006;SDS011;47963;53.008;6.754;2022-12-20T02:48:49;11.05;;;6.80;;
62006;SDS011;47963;53.008;6.754;2022-12-20T02:51:15;11.38;;;6.60;;
62006;SDS011;47963;53.008;6.754;2022-12-20T02:53:43;12.45;;;6.75;;
62006;SDS011;47963;53.008;6.754;2022-12-20T02:58:42;14.63;;;7.45;;
62006;SDS011;47963;53.008;6.754;2022-12-20T03:01:22;16.55;;;7.90;;
62006;SDS011;47963;53.008;6.754;2022-12-20T03:04:01;14.93;;;7.65;;
62006;SDS011;47963;53.008;6.754;2022-12-20T03:06:28;14.20;;;8.38;;
62006;SDS011;47963;53.008;6.754;2022-12-20T03:08:54;13.45;;;7.63;;
62006;SDS011;47963;53.008;6.754;2022-12-20T03:11:20;14.70;;;8.20;;
62006;SDS011;47963;53.008;6.754;2022-12-20T03:13:46;13.45;;;8.38;;
62006;SDS011;47963;53.008;6.754;2022-12-20T03:16:11;14.50;;;8.45;;
62006;SDS011;47963;53.008;6.754;2022-12-20T03:18:37;14.00;;;8.60;;
62006;SDS011;47963;53.008;6.754;2022-12-20T03:21:03;14.88;;;8.88;;
62006;SDS011;47963;53.008;6.754;2022-12-20T03:23:29;13.95;;;9.02;;
62006;SDS011;47963;53.008;6.754;2022-12-20T03:25:55;14.55;;;9.35;;
62006;SDS011;47963;53.008;6.754;2022-12-20T03:28:21;16.05;;;9.63;;
62006;SDS011;47963;53.008;6.754;2022-12-20T03:30:46;13.57;;;8.85;;
62006;SDS011;47963;53.008;6.754;2022-12-20T03:33:12;14.25;;;9.35;;
62006;SDS011;47963;53.008;6.754;2022-12-20T03:35:38;14.48;;;9.20;;
62006;SDS011;47963;53.008;6.754;2022-12-20T03:38:04;15.40;;;9.50;;
62006;SDS011;47963;53.008;6.754;2022-12-20T03:40:29;14.05;;;9.13;;
62006;SDS011;47963;53.008;6.754;2022-12-20T03:42:55;15.82;;;9.48;;
62006;SDS011;47963;53.008;6.754;2022-12-20T03:45:20;14.98;;;9.55;;
62006;SDS011;47963;53.008;6.754;2022-12-20T03:47:46;18.05;;;9.75;;
62006;SDS011;47963;53.008;6.754;2022-12-20T03:50:12;15.05;;;9.82;;
62006;SDS011;47963;53.008;6.754;2022-12-20T03:52:37;15.45;;;9.80;;
62006;SDS011;47963;53.008;6.754;2022-12-20T03:55:04;16.20;;;9.85;;
62006;SDS011;47963;53.008;6.754;2022-12-20T03:57:30;15.32;;;9.02;;
62006;SDS011;47963;53.008;6.754;2022-12-20T03:59:55;15.63;;;9.27;;
62006;SDS011;47963;53.008;6.754;2022-12-20T04:02:21;15.40;;;9.40;;
62006;SDS011;47963;53.008;6.754;2022-12-20T04:04:47;14.93;;;9.43;;
62006;SDS011;47963;53.008;6.754;2022-12-20T04:07:13;14.10;;;8.75;;
62006;SDS011;47963;53.008;6.754;2022-12-20T04:09:39;15.63;;;9.52;;
62006;SDS011;47963;53.008;6.754;2022-12-20T04:12:05;17.80;;;10.13;;
62006;SDS011;47963;53.008;6.754;2022-12-20T04:14:31;14.90;;;9.30;;
62006;SDS011;47963;53.008;6.754;2022-12-20T04:16:57;15.57;;;9.63;;
62006;SDS011;47963;53.008;6.754;2022-12-20T04:19:22;14.73;;;9.55;;
62006;SDS011;47963;53.008;6.754;2022-12-20T04:21:48;15.50;;;9.63;;
62006;SDS011;47963;53.008;6.754;2022-12-20T04:24:14;16.17;;;9.77;;
62006;SDS011;47963;53.008;6.754;2022-12-20T04:26:40;17.23;;;10.60;;
62006;SDS011;47963;53.008;6.754;2022-12-20T04:29:06;17.60;;;10.77;;
62006;SDS011;47963;53.008;6.754;2022-12-20T04:31:32;15.98;;;10.30;;
62006;SDS011;47963;53.008;6.754;2022-12-20T04:33:57;15.30;;;10.63;;
62006;SDS011;47963;53.008;6.754;2022-12-20T04:36:23;15.88;;;11.10;;
62006;SDS011;47963;53.008;6.754;2022-12-20T04:38:49;17.27;;;11.00;;
62006;SDS011;47963;53.008;6.754;2022-12-20T04:41:15;16.85;;;10.70;;
62006;SDS011;47963;53.008;6.754;2022-12-20T04:43:49;15.93;;;10.70;;
62006;SDS011;47963;53.008;6.754;2022-12-20T04:46:17;16.92;;;10.75;;
62006;SDS011;47963;53.008;6.754;2022-12-20T04:48:44;16.27;;;11.00;;
62006;SDS011;47963;53.008;6.754;2022-12-20T04:51:10;18.52;;;10.63;;
62006;SDS011;47963;53.008;6.754;2022-12-20T04:53:35;16.20;;;10.38;;
62006;SDS011;47963;53.008;6.754;2022-12-20T04:56:17;15.45;;;10.35;;
62006;SDS011;47963;53.008;6.754;2022-12-20T04:58:48;14.63;;;9.82;;
62006;SDS011;47963;53.008;6.754;2022-12-20T05:01:15;17.08;;;10.20;;
62006;SDS011;47963;53.008;6.754;2022-12-20T05:03:41;14.73;;;9.95;;
62006;SDS011;47963;53.008;6.754;2022-12-20T05:06:07;18.60;;;10.25;;
62006;SDS011;47963;53.008;6.754;2022-12-20T05:08:34;18.25;;;9.88;;
62006;SDS011;47963;53.008;6.754;2022-12-20T05:11:00;15.82;;;9.57;;
62006;SDS011;47963;53.008;6.754;2022-12-20T05:13:26;16.10;;;9.68;;
62006;SDS011;47963;53.008;6.754;2022-12-20T05:15:52;17.05;;;9.65;;
62006;SDS011;47963;53.008;6.754;2022-12-20T05:18:19;17.40;;;10.00;;
62006;SDS011;47963;53.008;6.754;2022-12-20T05:20:45;16.05;;;9.48;;
62006;SDS011;47963;53.008;6.754;2022-12-20T05:23:11;14.70;;;8.98;;
62006;SDS011;47963;53.008;6.754;2022-12-20T05:25:55;15.48;;;8.85;;
62006;SDS011;47963;53.008;6.754;2022-12-20T05:28:40;13.93;;;9.10;;
62006;SDS011;47963;53.008;6.754;2022-12-20T05:31:05;14.95;;;8.90;;
62006;SDS011;47963;53.008;6.754;2022-12-20T05:33:31;15.13;;;9.20;;
62006;SDS011;47963;53.008;6.754;2022-12-20T05:35:57;15.82;;;8.85;;
62006;SDS011;47963;53.008;6.754;2022-12-20T05:38:23;16.80;;;9.18;;
62006;SDS011;47963;53.008;6.754;2022-12-20T05:40:49;14.15;;;8.52;;
62006;SDS011;47963;53.008;6.754;2022-12-20T05:43:16;17.00;;;8.63;;
62006;SDS011;47963;53.008;6.754;2022-12-20T05:45:45;16.15;;;8.40;;
62006;SDS011;47963;53.008;6.754;2022-12-20T05:48:12;14.65;;;8.38;;
62006;SDS011;47963;53.008;6.754;2022-12-20T05:50:38;15.70;;;9.13;;
62006;SDS011;47963;53.008;6.754;2022-12-20T05:53:04;14.35;;;8.27;;
62006;SDS011;47963;53.008;6.754;2022-12-20T05:55:30;14.73;;;7.90;;
62006;SDS011;47963;53.008;6.754;2022-12-20T05:57:55;14.77;;;7.95;;
62006;SDS011;47963;53.008;6.754;2022-12-20T06:00:21;16.05;;;8.55;;
62006;SDS011;47963;53.008;6.754;2022-12-20T06:02:47;12.85;;;8.02;;
62006;SDS011;47963;53.008;6.754;2022-12-20T06:05:12;16.23;;;8.20;;
62006;SDS011;47963;53.008;6.754;2022-12-20T06:07:38;14.95;;;8.25;;
62006;SDS011;47963;53.008;6.754;2022-12-20T06:10:49;12.45;;;8.40;;
62006;SDS011;47963;53.008;6.754;2022-12-20T06:16:39;13.48;;;8.00;;
62006;SDS011;47963;53.008;6.754;2022-12-20T06:19:35;16.23;;;8.32;;
62006;SDS011;47963;53.008;6.754;2022-12-20T06:22:01;14.27;;;7.55;;
62006;SDS011;47963;53.008;6.754;2022-12-20T06:24:27;13.90;;;8.40;;
62006;SDS011;47963;53.008;6.754;2022-12-20T06:26:53;17.38;;;8.32;;
62006;SDS011;47963;53.008;6.754;2022-12-20T06:29:18;14.63;;;8.25;;
62006;SDS011;47963;53.008;6.754;2022-12-20T06:31:45;13.95;;;8.20;;
62006;SDS011;47963;53.008;6.754;2022-12-20T06:34:11;14.90;;;8.38;;
62006;SDS011;47963;53.008;6.754;2022-12-20T06:36:37;16.45;;;8.77;;
62006;SDS011;47963;53.008;6.754;2022-12-20T06:39:03;19.63;;;9.88;;
62006;SDS011;47963;53.008;6.754;2022-12-20T06:41:29;16.23;;;8.68;;
62006;SDS011;47963;53.008;6.754;2022-12-20T06:43:54;14.55;;;8.15;;
62006;SDS011;47963;53.008;6.754;2022-12-20T06:46:20;13.90;;;7.93;;
62006;SDS011;47963;53.008;6.754;2022-12-20T06:48:45;15.15;;;8.68;;
62006;SDS011;47963;53.008;6.754;2022-12-20T06:51:11;15.45;;;8.60;;
62006;SDS011;47963;53.008;6.754;2022-12-20T06:53:37;18.30;;;9.88;;
62006;SDS011;47963;53.008;6.754;2022-12-20T06:56:02;15.85;;;9.48;;
62006;SDS011;47963;53.008;6.754;2022-12-20T06:58:28;16.00;;;10.15;;
62006;SDS011;47963;53.008;6.754;2022-12-20T07:00:54;16.98;;;10.68;;
62006;SDS011;47963;53.008;6.754;2022-12-20T07:03:20;18.05;;;10.70;;
62006;SDS011;47963;53.008;6.754;2022-12-20T07:05:50;16.20;;;10.82;;
62006;SDS011;47963;53.008;6.754;2022-12-20T07:08:17;17.00;;;11.18;;
62006;SDS011;47963;53.008;6.754;2022-12-20T07:10:43;17.80;;;10.98;;
62006;SDS011;47963;53.008;6.754;2022-12-20T07:13:09;15.90;;;10.05;;
62006;SDS011;47963;53.008;6.754;2022-12-20T07:15:34;19.35;;;12.48;;
62006;SDS011;47963;53.008;6.754;2022-12-20T07:18:00;22.02;;;12.15;;
62006;SDS011;47963;53.008;6.754;2022-12-20T07:20:26;19.42;;;12.32;;
62006;SDS011;47963;53.008;6.754;2022-12-20T07:22:51;17.90;;;12.27;;
62006;SDS011;47963;53.008;6.754;2022-12-20T07:25:17;21.23;;;12.77;;
62006;SDS011;47963;53.008;6.754;2022-12-20T07:27:45;21.77;;;13.55;;
62006;SDS011;47963;53.008;6.754;2022-12-20T07:30:14;20.17;;;13.43;;
62006;SDS011;47963;53.008;6.754;2022-12-20T07:32:41;20.58;;;13.10;;
62006;SDS011;47963;53.008;6.754;2022-12-20T07:35:08;21.42;;;13.25;;
62006;SDS011;47963;53.008;6.754;2022-12-20T07:37:34;19.58;;;13.20;;
62006;SDS011;47963;53.008;6.754;2022-12-20T07:40:00;19.00;;;13.68;;
62006;SDS011;47963;53.008;6.754;2022-12-20T07:42:26;20.25;;;13.45;;
62006;SDS011;47963;53.008;6.754;2022-12-20T07:44:51;22.05;;;13.70;;
62006;SDS011;47963;53.008;6.754;2022-12-20T07:47:17;21.77;;;13.75;;
62006;SDS011;47963;53.008;6.754;2022-12-20T07:49:42;20.33;;;13.25;;
62006;SDS011;47963;53.008;6.754;2022-12-20T07:52:18;20.98;;;13.88;;
62006;SDS011;47963;53.008;6.754;2022-12-20T07:54:59;19.52;;;13.45;;
62006;SDS011;47963;53.008;6.754;2022-12-20T07:57:39;23.08;;;13.85;;
62006;SDS011;47963;53.008;6.754;2022-12-20T08:00:27;19.17;;;13.13;;
62006;SDS011;47963;53.008;6.754;2022-12-20T08:06:24;21.95;;;13.45;;
62006;SDS011;47963;53.008;6.754;2022-12-20T08:09:13;19.08;;;13.55;;
62006;SDS011;47963;53.008;6.754;2022-12-20T08:20:08;23.30;;;14.02;;
62006;SDS011;47963;53.008;6.754;2022-12-20T08:22:34;20.92;;;13.75;;
62006;SDS011;47963;53.008;6.754;2022-12-20T08:25:00;22.75;;;13.13;;
62006;SDS011;47963;53.008;6.754;2022-12-20T08:27:26;18.95;;;12.95;;
62006;SDS011;47963;53.008;6.754;2022-12-20T08:29:51;18.83;;;12.48;;
62006;SDS011;47963;53.008;6.754;2022-12-20T08:32:17;18.38;;;11.27;;
62006;SDS011;47963;53.008;6.754;2022-12-20T08:34:43;18.25;;;12.02;;
62006;SDS011;47963;53.008;6.754;2022-12-20T08:37:08;20.48;;;11.77;;
62006;SDS011;47963;53.008;6.754;2022-12-20T08:39:34;17.65;;;11.02;;
62006;SDS011;47963;53.008;6.754;2022-12-20T08:41:59;17.52;;;10.60;;
62006;SDS011;47963;53.008;6.754;2022-12-20T08:44:25;18.27;;;10.18;;
62006;SDS011;47963;53.008;6.754;2022-12-20T08:46:51;18.80;;;10.82;;
62006;SDS011;47963;53.008;6.754;2022-12-20T08:49:18;17.60;;;10.20;;
62006;SDS011;47963;53.008;6.754;2022-12-20T08:51:43;18.00;;;9.88;;
62006;SDS011;47963;53.008;6.754;2022-12-20T08:54:09;17.27;;;10.45;;
62006;SDS011;47963;53.008;6.754;2022-12-20T08:56:35;14.63;;;9.35;;
62006;SDS011;47963;53.008;6.754;2022-12-20T08:59:00;15.65;;;9.65;;
62006;SDS011;47963;53.008;6.754;2022-12-20T09:01:26;18.80;;;9.82;;
62006;SDS011;47963;53.008;6.754;2022-12-20T09:03:54;16.73;;;9.75;;
62006;SDS011;47963;53.008;6.754;2022-12-20T09:06:23;16.67;;;9.52;;
62006;SDS011;47963;53.008;6.754;2022-12-20T09:08:48;16.30;;;9.32;;
62006;SDS011;47963;53.008;6.754;2022-12-20T09:11:18;15.43;;;8.88;;
62006;SDS011;47963;53.008;6.754;2022-12-20T09:13:46;14.57;;;9.18;;
62006;SDS011;47963;53.008;6.754;2022-12-20T09:16:14;15.90;;;9.70;;
62006;SDS011;47963;53.008;6.754;2022-12-20T09:18:42;16.45;;;9.00;;
62006;SDS011;47963;53.008;6.754;2022-12-20T09:21:08;16.20;;;8.85;;
62006;SDS011;47963;53.008;6.754;2022-12-20T09:23:35;14.15;;;8.63;;
62006;SDS011;47963;53.008;6.754;2022-12-20T09:26:03;14.70;;;8.77;;
62006;SDS011;47963;53.008;6.754;2022-12-20T09:28:37;15.48;;;9.07;;
62006;SDS011;47963;53.008;6.754;2022-12-20T09:31:04;13.88;;;8.95;;
62006;SDS011;47963;53.008;6.754;2022-12-20T09:33:32;18.30;;;9.07;;
62006;SDS011;47963;53.008;6.754;2022-12-20T09:35:58;12.88;;;8.20;;
62006;SDS011;47963;53.008;6.754;2022-12-20T09:38:25;13.80;;;7.82;;
62006;SDS011;47963;53.008;6.754;2022-12-20T09:40:52;14.45;;;8.32;;
62006;SDS011;47963;53.008;6.754;2022-12-20T09:43:20;14.45;;;8.13;;
62006;SDS011;47963;53.008;6.754;2022-12-20T09:45:47;13.88;;;8.25;;
62006;SDS011;47963;53.008;6.754;2022-12-20T09:48:21;16.98;;;7.95;;
62006;SDS011;47963;53.008;6.754;2022-12-20T09:56:25;15.00;;;8.32;;
62006;SDS011;47963;53.008;6.754;2022-12-20T09:59:04;14.23;;;7.82;;
62006;SDS011;47963;53.008;6.754;2022-12-20T10:01:31;14.45;;;8.13;;
62006;SDS011;47963;53.008;6.754;2022-12-20T10:04:01;14.60;;;7.88;;
62006;SDS011;47963;53.008;6.754;2022-12-20T10:09:59;15.10;;;8.00;;
62006;SDS011;47963;53.008;6.754;2022-12-20T10:15:40;14.30;;;8.40;;
62006;SDS011;47963;53.008;6.754;2022-12-20T10:18:44;16.90;;;8.65;;
62006;SDS011;47963;53.008;6.754;2022-12-20T10:26:25;15.48;;;8.68;;
62006;SDS011;47963;53.008;6.754;2022-12-20T10:28:51;13.85;;;8.38;;
62006;SDS011;47963;53.008;6.754;2022-12-20T10:31:17;14.90;;;8.57;;
62006;SDS011;47963;53.008;6.754;2022-12-20T10:33:43;14.85;;;8.38;;
62006;SDS011;47963;53.008;6.754;2022-12-20T10:36:17;16.02;;;8.65;;
62006;SDS011;47963;53.008;6.754;2022-12-20T10:38:51;16.02;;;9.00;;
62006;SDS011;47963;53.008;6.754;2022-12-20T10:41:20;13.88;;;8.10;;
62006;SDS011;47963;53.008;6.754;2022-12-20T10:44:33;15.68;;;8.63;;
62006;SDS011;47963;53.008;6.754;2022-12-20T10:46:43;14.20;;;8.35;;
62006;SDS011;47963;53.008;6.754;2022-12-20T10:49:26;16.90;;;9.77;;
62006;SDS011;47963;53.008;6.754;2022-12-20T10:57:46;14.45;;;8.73;;
62006;SDS011;47963;53.008;6.754;2022-12-20T10:59:58;18.13;;;9.43;;
62006;SDS011;47963;53.008;6.754;2022-12-20T11:02:34;14.82;;;8.90;;
62006;SDS011;47963;53.008;6.754;2022-12-20T11:07:36;18.60;;;9.25;;
62006;SDS011;47963;53.008;6.754;2022-12-20T11:10:19;15.90;;;9.27;;
62006;SDS011;47963;53.008;6.754;2022-12-20T11:12:57;13.93;;;9.10;;
62006;SDS011;47963;53.008;6.754;2022-12-20T11:15:31;15.00;;;9.57;;
62006;SDS011;47963;53.008;6.754;2022-12-20T11:20:42;15.15;;;9.52;;
62006;SDS011;47963;53.008;6.754;2022-12-20T11:28:42;16.27;;;9.48;;
62006;SDS011;47963;53.008;6.754;2022-12-20T11:31:56;15.43;;;9.40;;
62006;SDS011;47963;53.008;6.754;2022-12-20T11:34:22;19.33;;;10.50;;
62006;SDS011;47963;53.008;6.754;2022-12-20T11:37:04;15.38;;;9.20;;
62006;SDS011;47963;53.008;6.754;2022-12-20T11:39:34;16.20;;;9.30;;
62006;SDS011;47963;53.008;6.754;2022-12-20T11:42:16;16.33;;;9.50;;
62006;SDS011;47963;53.008;6.754;2022-12-20T11:53:30;18.20;;;9.85;;
62006;SDS011;47963;53.008;6.754;2022-12-20T11:55:58;17.65;;;9.60;;
62006;SDS011;47963;53.008;6.754;2022-12-20T11:58:32;15.82;;;9.05;;
62006;SDS011;47963;53.008;6.754;2022-12-20T12:01:25;14.60;;;9.88;;
62006;SDS011;47963;53.008;6.754;2022-12-20T12:04:00;15.32;;;9.35;;
62006;SDS011;47963;53.008;6.754;2022-12-20T12:09:54;14.55;;;9.18;;
62006;SDS011;47963;53.008;6.754;2022-12-20T12:16:10;14.67;;;9.30;;
62006;SDS011;47963;53.008;6.754;2022-12-20T12:22:52;17.65;;;10.57;;
62006;SDS011;47963;53.008;6.754;2022-12-20T12:25:39;16.55;;;9.65;;
62006;SDS011;47963;53.008;6.754;2022-12-20T12:28:08;18.23;;;10.23;;
62006;SDS011;47963;53.008;6.754;2022-12-20T12:35:17;16.38;;;10.88;;
62006;SDS011;47963;53.008;6.754;2022-12-20T12:46:52;17.67;;;11.27;;
62006;SDS011;47963;53.008;6.754;2022-12-20T12:49:23;17.00;;;11.45;;
62006;SDS011;47963;53.008;6.754;2022-12-20T12:51:52;16.80;;;10.90;;
62006;SDS011;47963;53.008;6.754;2022-12-20T12:54:35;16.98;;;11.38;;
62006;SDS011;47963;53.008;6.754;2022-12-20T12:57:10;16.17;;;11.60;;
62006;SDS011;47963;53.008;6.754;2022-12-20T12:59:42;18.70;;;12.35;;
62006;SDS011;47963;53.008;6.754;2022-12-20T13:12:46;18.80;;;12.57;;
62006;SDS011;47963;53.008;6.754;2022-12-20T13:24:10;21.17;;;14.68;;
62006;SDS011;47963;53.008;6.754;2022-12-20T13:26:54;21.73;;;14.13;;
62006;SDS011;47963;53.008;6.754;2022-12-20T13:29:23;23.25;;;14.98;;
62006;SDS011;47963;53.008;6.754;2022-12-20T13:31:50;21.67;;;14.82;;
62006;SDS011;47963;53.008;6.754;2022-12-20T13:34:34;19.63;;;15.05;;
62006;SDS011;47963;53.008;6.754;2022-12-20T13:37:25;21.85;;;15.63;;
62006;SDS011;47963;53.008;6.754;2022-12-20T13:39:52;20.83;;;15.48;;
62006;SDS011;47963;53.008;6.754;2022-12-20T13:42:22;25.25;;;16.25;;
62006;SDS011;47963;53.008;6.754;2022-12-20T13:45:01;21.40;;;15.82;;
62006;SDS011;47963;53.008;6.754;2022-12-20T13:47:39;22.15;;;16.05;;
62006;SDS011;47963;53.008;6.754;2022-12-20T13:52:47;21.80;;;16.05;;
62006;SDS011;47963;53.008;6.754;2022-12-20T13:55:22;21.45;;;16.75;;
62006;SDS011;47963;53.008;6.754;2022-12-20T13:58:19;20.50;;;16.00;;
62006;SDS011;47963;53.008;6.754;2022-12-20T14:00:46;25.17;;;17.02;;
62006;SDS011;47963;53.008;6.754;2022-12-20T14:03:16;21.10;;;16.05;;
62006;SDS011;47963;53.008;6.754;2022-12-20T14:08:37;24.95;;;16.20;;
62006;SDS011;47963;53.008;6.754;2022-12-20T14:18:46;21.42;;;16.63;;
62006;SDS011;47963;53.008;6.754;2022-12-20T14:21:41;23.55;;;17.05;;
62006;SDS011;47963;53.008;6.754;2022-12-20T14:24:13;22.30;;;17.88;;
62006;SDS011;47963;53.008;6.754;2022-12-20T14:26:41;20.90;;;16.67;;
62006;SDS011;47963;53.008;6.754;2022-12-20T14:29:15;23.73;;;17.90;;
62006;SDS011;47963;53.008;6.754;2022-12-20T14:31:48;23.63;;;18.17;;
62006;SDS011;47963;53.008;6.754;2022-12-20T14:34:15;26.10;;;19.08;;
62006;SDS011;47963;53.008;6.754;2022-12-20T14:36:46;23.10;;;18.85;;
62006;SDS011;47963;53.008;6.754;2022-12-20T14:39:26;24.35;;;18.70;;
62006;SDS011;47963;53.008;6.754;2022-12-20T14:42:00;23.45;;;18.92;;
62006;SDS011;47963;53.008;6.754;2022-12-20T14:44:27;25.50;;;19.42;;
62006;SDS011;47963;53.008;6.754;2022-12-20T14:49:22;26.48;;;19.10;;
62006;SDS011;47963;53.008;6.754;2022-12-20T14:51:51;25.92;;;21.65;;
62006;SDS011;47963;53.008;6.754;2022-12-20T14:54:28;24.17;;;20.52;;
62006;SDS011;47963;53.008;6.754;2022-12-20T14:56:54;24.50;;;20.55;;
62006;SDS011;47963;53.008;6.754;2022-12-20T14:59:27;26.23;;;20.85;;
62006;SDS011;47963;53.008;6.754;2022-12-20T15:01:55;26.48;;;22.15;;
62006;SDS011;47963;53.008;6.754;2022-12-20T15:04:33;29.90;;;22.52;;
62006;SDS011;47963;53.008;6.754;2022-12-20T15:07:00;27.83;;;21.95;;
62006;SDS011;47963;53.008;6.754;2022-12-20T15:09:26;26.55;;;22.13;;
62006;SDS011;47963;53.008;6.754;2022-12-20T15:11:53;28.27;;;23.02;;
62006;SDS011;47963;53.008;6.754;2022-12-20T15:14:22;29.67;;;23.67;;
62006;SDS011;47963;53.008;6.754;2022-12-20T15:17:00;32.58;;;23.75;;
62006;SDS011;47963;53.008;6.754;2022-12-20T15:19:36;30.63;;;23.70;;
62006;SDS011;47963;53.008;6.754;2022-12-20T15:22:03;32.45;;;25.55;;
62006;SDS011;47963;53.008;6.754;2022-12-20T15:24:28;33.10;;;25.17;;
62006;SDS011;47963;53.008;6.754;2022-12-20T15:26:54;33.50;;;25.42;;
62006;SDS011;47963;53.008;6.754;2022-12-20T15:29:21;33.42;;;25.55;;
62006;SDS011;47963;53.008;6.754;2022-12-20T15:32:06;33.88;;;25.60;;
62006;SDS011;47963;53.008;6.754;2022-12-20T15:34:47;34.22;;;26.20;;
62006;SDS011;47963;53.008;6.754;2022-12-20T15:37:13;33.83;;;26.48;;
62006;SDS011;47963;53.008;6.754;2022-12-20T15:39:40;35.05;;;27.38;;
62006;SDS011;47963;53.008;6.754;2022-12-20T15:42:06;34.97;;;26.80;;
62006;SDS011;47963;53.008;6.754;2022-12-20T15:44:37;35.58;;;27.50;;
62006;SDS011;47963;53.008;6.754;2022-12-20T15:47:02;33.30;;;26.42;;
62006;SDS011;47963;53.008;6.754;2022-12-20T15:49:29;37.65;;;28.80;;
62006;SDS011;47963;53.008;6.754;2022-12-20T15:51:56;36.67;;;28.05;;
62006;SDS011;47963;53.008;6.754;2022-12-20T15:54:32;39.50;;;27.40;;
62006;SDS011;47963;53.008;6.754;2022-12-20T15:57:00;35.83;;;28.40;;
62006;SDS011;47963;53.008;6.754;2022-12-20T15:59:28;38.28;;;27.45;;
62006;SDS011;47963;53.008;6.754;2022-12-20T16:01:54;35.55;;;27.55;;
62006;SDS011;47963;53.008;6.754;2022-12-20T16:04:20;36.45;;;28.10;;
62006;SDS011;47963;53.008;6.754;2022-12-20T16:06:48;37.55;;;28.92;;
62006;SDS011;47963;53.008;6.754;2022-12-20T16:09:17;37.83;;;28.98;;
62006;SDS011;47963;53.008;6.754;2022-12-20T16:11:44;38.83;;;28.67;;
62006;SDS011;47963;53.008;6.754;2022-12-20T16:14:19;39.10;;;29.58;;
62006;SDS011;47963;53.008;6.754;2022-12-20T16:16:46;42.05;;;29.83;;
62006;SDS011;47963;53.008;6.754;2022-12-20T16:19:14;40.60;;;28.42;;
62006;SDS011;47963;53.008;6.754;2022-12-20T16:21:44;37.63;;;28.67;;
62006;SDS011;47963;53.008;6.754;2022-12-20T16:24:12;37.33;;;28.27;;
62006;SDS011;47963;53.008;6.754;2022-12-20T16:26:41;36.55;;;29.15;;
62006;SDS011;47963;53.008;6.754;2022-12-20T16:29:07;39.67;;;28.92;;
62006;SDS011;47963;53.008;6.754;2022-12-20T16:31:37;35.70;;;28.02;;
62006;SDS011;47963;53.008;6.754;2022-12-20T16:34:05;40.22;;;29.42;;
62006;SDS011;47963;53.008;6.754;2022-12-20T16:36:33;37.67;;;28.60;;
62006;SDS011;47963;53.008;6.754;2022-12-20T16:38:59;40.30;;;29.40;;
62006;SDS011;47963;53.008;6.754;2022-12-20T16:41:26;36.78;;;27.60;;
62006;SDS011;47963;53.008;6.754;2022-12-20T16:43:54;36.75;;;28.23;;
62006;SDS011;47963;53.008;6.754;2022-12-20T16:46:21;38.03;;;29.50;;
62006;SDS011;47963;53.008;6.754;2022-12-20T16:48:50;35.75;;;28.13;;
62006;SDS011;47963;53.008;6.754;2022-12-20T16:51:24;37.70;;;28.50;;
62006;SDS011;47963;53.008;6.754;2022-12-20T16:54:02;37.30;;;30.27;;
62006;SDS011;47963;53.008;6.754;2022-12-20T16:56:30;40.42;;;29.50;;
62006;SDS011;47963;53.008;6.754;2022-12-20T16:58:56;37.38;;;29.20;;
62006;SDS011;47963;53.008;6.754;2022-12-20T17:01:25;40.78;;;30.10;;
62006;SDS011;47963;53.008;6.754;2022-12-20T17:03:55;41.38;;;30.40;;